Time;durP1;ratioP1;P1;durP2;ratioP2;P2;SDS_P1;SDS_P2;PMS_P1;PMS_P2;Temp;Humidity;BMP_temperature;BMP_pressure;BME280_temperature;BME280_humidity;BME280_pressure;Samples;Min_cycle;Max_cycle;Signal;HPM_P1;HPM_P2
2022/01/15 00:00:34;;;;;;;4.30;2.70;;;9.10;99.90;;;;;;5071210;28;20208;-95
2022/01/15 00:03:05;;;;;;;4.07;2.87;;;9.10;99.90;;;;;;5063168;28;20657;-95
2022/01/15 00:05:37;;;;;;;5.57;2.37;;;9.00;99.90;;;;;;5061214;28;20211;-94
2022/01/15 00:08:08;;;;;;;2.83;2.57;;;8.90;99.90;;;;;;5054502;28;20665;-94
2022/01/15 00:10:40;;;;;;;3.30;2.33;;;8.90;99.90;;;;;;5070749;28;20215;-94
2022/01/15 00:13:21;;;;;;;4.73;2.90;;;8.70;99.90;;;;;;5063680;28;20232;-95
2022/01/15 00:16:03;;;;;;;3.83;2.97;;;8.70;99.90;;;;;;5067494;28;20262;-94
2022/01/15 00:18:47;;;;;;;4.17;3.30;;;8.60;99.90;;;;;;5071030;28;20204;-93
2022/01/15 00:21:19;;;;;;;5.27;2.90;;;8.60;99.90;;;;;;5069277;28;20220;-93
2022/01/15 00:26:34;;;;;;;4.77;2.80;;;8.50;99.90;;;;;;5070789;28;20245;-92
2022/01/15 00:29:07;;;;;;;3.97;2.87;;;8.40;99.90;;;;;;5168738;22;20278;-91
2022/01/15 00:31:39;;;;;;;6.10;2.70;;;8.30;99.90;;;;;;5074692;28;20207;-93
2022/01/15 00:34:10;;;;;;;5.50;2.60;;;8.20;99.90;;;;;;5182343;22;20232;-93
2022/01/15 00:36:41;;;;;;;5.30;3.17;;;8.10;99.90;;;;;;5075362;28;20224;-91
2022/01/15 00:39:12;;;;;;;6.33;3.00;;;8.00;99.90;;;;;;5073435;28;20280;-92
2022/01/15 00:41:44;;;;;;;6.07;3.37;;;8.00;99.90;;;;;;5075947;28;20184;-92
2022/01/15 00:44:17;;;;;;;5.73;2.93;;;7.90;99.90;;;;;;5074551;28;20216;-93
2022/01/15 00:46:48;;;;;;;6.23;3.13;;;7.90;99.90;;;;;;5070939;28;20301;-94
2022/01/15 00:49:20;;;;;;;9.97;3.20;;;7.80;99.90;;;;;;5067912;28;20200;-94
2022/01/15 00:51:52;;;;;;;5.27;3.00;;;7.80;99.90;;;;;;5063850;28;20238;-95
2022/01/15 00:54:23;;;;;;;6.97;2.97;;;7.70;99.90;;;;;;5065899;28;20204;-95
2022/01/15 00:56:54;;;;;;;5.80;2.97;;;7.60;99.90;;;;;;5070057;28;20224;-94
2022/01/15 00:59:29;;;;;;;4.50;3.17;;;7.50;99.90;;;;;;5069758;28;20291;-93
2022/01/15 01:02:00;;;;;;;4.50;3.07;;;7.50;99.90;;;;;;5069651;28;20207;-93
2022/01/15 01:04:32;;;;;;;4.53;3.47;;;7.50;99.90;;;;;;5068456;28;20231;-93
2022/01/15 01:07:04;;;;;;;4.37;3.10;;;7.40;99.90;;;;;;5069222;28;20208;-93
2022/01/15 01:09:40;;;;;;;5.93;3.60;;;7.40;99.90;;;;;;5072338;28;20208;-93
2022/01/15 01:12:30;;;;;;;4.23;3.17;;;7.40;99.90;;;;;;5071108;28;20222;-94
2022/01/15 01:20:53;;;;;;;4.63;2.90;;;7.30;99.90;;;;;;5069916;28;20200;-93
2022/01/15 01:23:28;;;;;;;5.30;3.23;;;7.20;99.90;;;;;;5072262;28;20227;-93
2022/01/15 01:26:06;;;;;;;4.53;3.13;;;7.20;99.90;;;;;;5072547;28;20216;-93
2022/01/15 01:28:43;;;;;;;3.80;2.90;;;7.20;99.90;;;;;;5071269;28;20324;-93
2022/01/15 01:31:20;;;;;;;4.00;3.20;;;7.10;99.90;;;;;;5072591;28;20567;-93
2022/01/15 01:34:04;;;;;;;4.20;2.90;;;7.10;99.90;;;;;;5071889;28;20216;-93
2022/01/15 01:36:44;;;;;;;6.07;3.03;;;7.10;99.90;;;;;;5055922;28;20230;-93
2022/01/15 01:39:20;;;;;;;5.20;3.13;;;7.00;99.90;;;;;;5072525;28;20218;-93
2022/01/15 01:42:06;;;;;;;5.17;2.93;;;7.00;99.90;;;;;;5070578;28;20214;-89
2022/01/15 01:44:41;;;;;;;6.70;3.33;;;7.00;99.90;;;;;;5073649;28;20390;-93
2022/01/15 01:47:26;;;;;;;5.53;4.67;;;6.90;99.90;;;;;;5071238;28;20252;-93
2022/01/15 01:49:57;;;;;;;9.53;5.27;;;6.90;99.90;;;;;;5069383;28;20293;-92
2022/01/15 01:54:57;;;;;;;28.23;14.37;;;6.80;99.90;;;;;;5048155;28;20234;-93
2022/01/15 01:57:28;;;;;;;8.17;5.20;;;6.70;99.90;;;;;;5045232;28;20303;-94
2022/01/15 01:59:59;;;;;;;7.93;5.20;;;6.60;99.90;;;;;;5052262;28;20207;-94
2022/01/15 02:02:32;;;;;;;10.10;6.67;;;6.60;99.90;;;;;;5050329;28;20623;-94
2022/01/15 02:05:04;;;;;;;13.07;7.37;;;6.60;99.90;;;;;;5044811;28;20211;-93
2022/01/15 02:07:35;;;;;;;11.37;5.63;;;6.50;99.90;;;;;;5051958;28;20201;-94
2022/01/15 02:10:09;;;;;;;6.30;5.50;;;6.50;99.90;;;;;;5051961;28;20205;-93
2022/01/15 02:12:41;;;;;;;6.47;5.50;;;6.50;99.90;;;;;;5052665;28;20211;-94
2022/01/15 02:15:15;;;;;;;6.33;5.60;;;6.50;99.90;;;;;;5051966;28;20205;-93
2022/01/15 02:17:50;;;;;;;7.03;5.00;;;6.40;99.90;;;;;;5050475;28;20232;-94
2022/01/15 02:21:00;;;;;;;6.97;4.97;;;6.30;99.90;;;;;;5054500;28;20266;-95
2022/01/15 02:23:34;;;;;;;8.37;5.10;;;6.30;99.90;;;;;;5048541;28;20204;-94
2022/01/15 02:26:08;;;;;;;8.43;5.40;;;6.30;99.90;;;;;;5050959;28;20223;-94
2022/01/15 02:28:42;;;;;;;8.83;5.60;;;6.30;99.90;;;;;;5047727;28;20205;-94
2022/01/15 02:31:18;;;;;;;8.63;5.13;;;6.40;99.90;;;;;;5048800;28;20212;-94
2022/01/15 02:33:52;;;;;;;8.53;5.10;;;6.40;99.90;;;;;;5044937;28;20199;-93
2022/01/15 02:36:28;;;;;;;7.73;5.20;;;6.40;99.90;;;;;;5050956;28;20274;-93
2022/01/15 02:39:00;;;;;;;8.70;4.77;;;6.40;99.90;;;;;;5053187;28;20208;-93
2022/01/15 02:41:34;;;;;;;7.60;4.60;;;6.40;99.90;;;;;;5048030;28;20205;-93
2022/01/15 02:44:15;;;;;;;5.63;4.13;;;6.40;99.90;;;;;;5051651;28;20212;-92
2022/01/15 02:49:37;;;;;;;7.57;4.33;;;6.30;99.90;;;;;;5071602;28;20212;-94
2022/01/15 02:52:11;;;;;;;8.47;4.63;;;6.30;99.90;;;;;;5073734;28;20240;-93
2022/01/15 02:54:42;;;;;;;8.87;5.30;;;6.30;99.90;;;;;;5078008;28;20204;-94
2022/01/15 02:57:16;;;;;;;8.63;5.07;;;6.20;99.90;;;;;;5077482;28;20231;-95
2022/01/15 02:59:48;;;;;;;7.80;5.23;;;6.10;99.90;;;;;;5078912;28;20186;-94
2022/01/15 03:02:21;;;;;;;9.40;6.17;;;6.00;99.90;;;;;;5078497;28;20215;-93
2022/01/15 03:04:52;;;;;;;9.87;5.47;;;6.00;99.90;;;;;;5072384;28;20209;-93
2022/01/15 03:07:26;;;;;;;8.87;4.83;;;6.00;99.90;;;;;;5069867;28;20235;-94
2022/01/15 03:09:57;;;;;;;7.20;4.67;;;6.00;99.90;;;;;;5049645;28;20259;-94
2022/01/15 03:12:28;;;;;;;8.87;6.63;;;6.00;99.90;;;;;;5045891;28;20208;-94
2022/01/15 03:15:19;;;;;;;8.23;5.70;;;5.90;99.90;;;;;;5048928;28;20195;-94
2022/01/15 03:17:52;;;;;;;10.47;7.63;;;5.90;99.90;;;;;;5050376;28;20393;-93
2022/01/15 03:20:24;;;;;;;9.27;8.27;;;5.80;99.90;;;;;;5049804;28;20204;-94
2022/01/15 03:22:58;;;;;;;10.07;7.70;;;5.80;99.90;;;;;;5051300;28;20205;-94
2022/01/15 03:25:30;;;;;;;12.00;8.20;;;5.70;99.90;;;;;;5053401;28;20208;-93
2022/01/15 03:28:02;;;;;;;9.83;8.23;;;5.80;99.90;;;;;;5068608;28;20192;-94
2022/01/15 03:30:33;;;;;;;11.67;8.70;;;5.70;99.90;;;;;;5067148;28;20208;-94
2022/01/15 03:33:06;;;;;;;11.03;8.77;;;5.70;99.90;;;;;;5070234;28;20276;-94
2022/01/15 03:35:37;;;;;;;11.53;8.73;;;5.70;99.90;;;;;;5065067;28;20208;-94
2022/01/15 03:38:11;;;;;;;10.13;8.47;;;5.70;99.90;;;;;;5068541;28;20264;-94
2022/01/15 03:40:43;;;;;;;8.83;7.40;;;5.70;99.90;;;;;;5067926;28;20199;-93
2022/01/15 03:43:17;;;;;;;8.30;7.30;;;5.60;99.90;;;;;;5070977;28;20294;-91
2022/01/15 03:45:50;;;;;;;9.63;7.37;;;5.60;99.90;;;;;;5069659;28;20188;-93
2022/01/15 03:48:21;;;;;;;7.33;6.40;;;5.60;99.90;;;;;;5059172;28;20227;-93
2022/01/15 03:50:53;;;;;;;11.10;6.97;;;5.60;99.90;;;;;;5067329;28;20200;-94
2022/01/15 03:53:26;;;;;;;9.53;6.53;;;5.60;99.90;;;;;;5060175;28;20230;-94
2022/01/15 03:55:57;;;;;;;8.37;6.57;;;5.60;99.90;;;;;;5056978;28;20236;-93
2022/01/15 03:58:28;;;;;;;9.07;5.97;;;5.50;99.90;;;;;;5065392;28;20243;-93
2022/01/15 04:00:58;;;;;;;7.83;6.33;;;5.50;99.90;;;;;;5060255;28;20208;-93
2022/01/15 04:03:30;;;;;;;7.83;6.20;;;5.40;99.90;;;;;;5065089;28;20230;-93
2022/01/15 04:06:01;;;;;;;6.73;5.70;;;5.40;99.90;;;;;;5066470;28;20242;-94
2022/01/15 04:08:35;;;;;;;8.00;5.33;;;5.40;99.90;;;;;;5062055;28;20682;-95
2022/01/15 04:11:05;;;;;;;8.17;5.80;;;5.30;99.90;;;;;;5058266;28;20262;-93
2022/01/15 04:13:37;;;;;;;7.93;6.03;;;5.40;99.90;;;;;;5064606;28;20214;-94
2022/01/15 04:16:08;;;;;;;7.10;6.20;;;5.40;99.90;;;;;;5058267;28;20212;-93
2022/01/15 04:18:41;;;;;;;7.90;6.23;;;5.30;99.90;;;;;;5057912;28;20236;-94
2022/01/15 04:21:13;;;;;;;8.70;7.30;;;5.30;99.90;;;;;;5072384;28;20235;-93
2022/01/15 04:23:47;;;;;;;10.37;7.13;;;5.30;99.90;;;;;;5067802;28;20200;-93
2022/01/15 04:26:22;;;;;;;8.97;7.40;;;5.30;99.90;;;;;;5066570;28;20196;-95
2022/01/15 04:28:54;;;;;;;9.10;7.63;;;5.40;99.90;;;;;;5063267;28;20207;-94
2022/01/15 04:31:25;;;;;;;10.10;7.97;;;5.30;99.90;;;;;;5065757;28;20204;-94
2022/01/15 04:33:57;;;;;;;10.00;8.67;;;5.40;99.90;;;;;;5070119;28;20208;-94
2022/01/15 04:36:29;;;;;;;10.10;8.70;;;5.40;99.90;;;;;;5070176;28;20228;-93
2022/01/15 04:39:03;;;;;;;12.80;9.70;;;5.30;99.90;;;;;;5068769;28;20335;-92
2022/01/15 04:41:34;;;;;;;12.47;10.63;;;5.30;99.90;;;;;;5070446;28;20232;-93
2022/01/15 04:44:07;;;;;;;13.90;12.40;;;5.30;99.90;;;;;;5075454;28;20207;-93
2022/01/15 04:46:39;;;;;;;16.30;12.63;;;5.30;99.90;;;;;;5071735;28;20218;-93
2022/01/15 04:49:11;;;;;;;11.77;10.33;;;5.30;99.90;;;;;;5072976;28;20212;-94
2022/01/15 04:51:42;;;;;;;10.70;9.27;;;5.30;99.90;;;;;;5065307;28;20972;-92
2022/01/15 04:54:16;;;;;;;13.17;11.47;;;5.30;99.90;;;;;;5061108;28;20242;-93
2022/01/15 04:56:46;;;;;;;11.87;10.20;;;5.30;99.90;;;;;;5060053;28;20235;-93
2022/01/15 04:59:18;;;;;;;13.23;9.87;;;5.30;99.90;;;;;;5060958;28;20561;-92
2022/01/15 05:01:49;;;;;;;13.77;8.80;;;5.20;99.90;;;;;;5060651;28;20299;-94
2022/01/15 05:04:20;;;;;;;10.87;9.17;;;5.20;99.90;;;;;;5061032;28;20279;-95
2022/01/15 05:06:52;;;;;;;14.50;8.87;;;5.00;99.90;;;;;;5060937;28;20211;-92
2022/01/15 05:09:25;;;;;;;12.03;8.43;;;5.00;99.90;;;;;;5063201;28;20211;-94
2022/01/15 05:12:01;;;;;;;10.97;7.70;;;5.00;99.90;;;;;;5076787;28;20187;-94
2022/01/15 05:14:33;;;;;;;8.93;6.40;;;5.00;99.90;;;;;;5080737;28;20222;-93
2022/01/15 05:17:05;;;;;;;8.30;6.97;;;5.00;99.90;;;;;;5609690;22;20224;-92
2022/01/15 05:19:35;;;;;;;8.80;5.73;;;5.00;99.90;;;;;;5079352;28;20212;-94
2022/01/15 05:22:07;;;;;;;8.77;6.07;;;5.00;99.90;;;;;;5080128;28;20231;-94
2022/01/15 05:24:41;;;;;;;8.20;6.20;;;5.00;99.90;;;;;;5076108;28;20216;-92
2022/01/15 05:27:13;;;;;;;7.57;6.07;;;5.10;99.90;;;;;;5074647;28;20207;-93
2022/01/15 05:29:45;;;;;;;10.10;7.20;;;5.10;99.90;;;;;;5072044;28;20211;-93
2022/01/15 05:32:18;;;;;;;10.83;7.57;;;5.00;99.90;;;;;;5068615;28;20209;-93
2022/01/15 05:34:50;;;;;;;11.30;7.63;;;5.10;99.90;;;;;;5063154;28;20196;-93
2022/01/15 05:37:22;;;;;;;11.67;7.33;;;5.10;99.90;;;;;;5059651;28;20287;-92
2022/01/15 05:39:55;;;;;;;8.87;7.00;;;5.10;99.90;;;;;;5060152;28;20658;-94
2022/01/15 05:42:25;;;;;;;9.70;6.70;;;5.10;99.90;;;;;;5059946;28;20269;-92
2022/01/15 05:44:57;;;;;;;8.73;7.10;;;5.20;99.90;;;;;;5060109;28;20239;-92
2022/01/15 05:47:28;;;;;;;7.07;5.50;;;5.20;99.90;;;;;;5063727;28;20204;-92
2022/01/15 05:49:59;;;;;;;7.63;6.10;;;5.20;99.90;;;;;;5068062;28;20196;-91
2022/01/15 05:52:30;;;;;;;6.57;5.20;;;5.20;99.90;;;;;;5072595;28;20275;-93
2022/01/15 05:55:03;;;;;;;7.53;5.27;;;5.30;99.90;;;;;;5062062;28;20204;-93
2022/01/15 05:57:35;;;;;;;5.97;4.87;;;5.30;99.90;;;;;;5059772;28;20216;-93
2022/01/15 06:00:07;;;;;;;6.03;4.57;;;5.30;99.90;;;;;;5060732;28;20233;-95
2022/01/15 06:02:38;;;;;;;5.17;4.60;;;5.30;99.90;;;;;;5061868;28;20238;-93
2022/01/15 06:05:10;;;;;;;5.10;4.13;;;5.30;99.90;;;;;;5077201;28;20204;-93
2022/01/15 06:07:41;;;;;;;5.23;4.50;;;5.30;99.90;;;;;;5077540;28;20219;-93
2022/01/15 06:10:15;;;;;;;5.87;4.47;;;5.30;99.90;;;;;;5078200;28;20203;-93
2022/01/15 06:12:46;;;;;;;5.77;4.90;;;5.30;99.90;;;;;;5078524;28;20218;-91
2022/01/15 06:15:18;;;;;;;4.43;3.97;;;5.30;99.90;;;;;;5078865;28;20212;-93
2022/01/15 06:17:49;;;;;;;4.77;4.27;;;5.30;99.90;;;;;;5078259;28;20196;-93
2022/01/15 06:20:20;;;;;;;7.10;5.77;;;5.30;99.90;;;;;;5078578;28;20263;-93
2022/01/15 06:22:51;;;;;;;6.57;5.50;;;5.20;99.90;;;;;;5078917;28;20306;-91
2022/01/15 06:25:25;;;;;;;6.73;5.30;;;5.20;99.90;;;;;;5077551;28;20200;-90
2022/01/15 06:27:56;;;;;;;6.90;5.50;;;5.20;99.90;;;;;;5074635;28;20188;-92
2022/01/15 06:30:27;;;;;;;6.43;5.53;;;5.20;99.90;;;;;;5073758;28;20276;-93
2022/01/15 06:32:58;;;;;;;6.53;5.60;;;5.20;99.90;;;;;;5073495;28;20208;-93
2022/01/15 06:35:29;;;;;;;6.27;4.77;;;5.20;99.90;;;;;;5073293;28;20204;-93
2022/01/15 06:38:00;;;;;;;6.93;5.53;;;5.20;99.90;;;;;;5071720;28;20213;-93
2022/01/15 06:40:33;;;;;;;7.63;5.37;;;5.30;99.90;;;;;;5073144;28;20235;-93
2022/01/15 06:43:05;;;;;;;9.33;8.13;;;5.30;99.90;;;;;;5073129;28;20215;-93
2022/01/15 06:45:37;;;;;;;11.30;8.63;;;5.30;99.90;;;;;;5071838;28;20228;-93
2022/01/15 06:48:08;;;;;;;11.63;8.67;;;5.20;99.90;;;;;;5071493;28;20212;-91
2022/01/15 06:50:39;;;;;;;13.43;8.13;;;5.30;99.90;;;;;;5072081;28;20204;-93
2022/01/15 06:53:11;;;;;;;8.63;6.73;;;5.20;99.90;;;;;;5069947;28;20212;-93
2022/01/15 06:55:49;;;;;;;9.13;6.73;;;5.20;99.90;;;;;;5064337;28;20299;-93
2022/01/15 06:58:20;;;;;;;9.17;7.00;;;5.20;99.90;;;;;;5061908;28;20227;-93
2022/01/15 07:00:51;;;;;;;9.10;6.67;;;5.10;99.90;;;;;;5061397;28;20204;-93
2022/01/15 07:03:22;;;;;;;11.87;8.13;;;5.10;99.90;;;;;;5060435;28;20208;-93
2022/01/15 07:05:53;;;;;;;11.00;7.77;;;5.20;99.90;;;;;;5060280;28;20238;-94
2022/01/15 07:08:24;;;;;;;21.67;8.40;;;5.10;99.90;;;;;;5060132;28;20300;-92
2022/01/15 07:10:57;;;;;;;24.97;9.03;;;5.10;99.90;;;;;;5060395;28;20228;-93
2022/01/15 07:13:29;;;;;;;103.50;12.00;;;5.00;99.90;;;;;;5060703;28;20213;-93
2022/01/15 07:16:00;;;;;;;19.33;8.47;;;5.10;99.90;;;;;;5060605;28;20239;-92
2022/01/15 07:18:32;;;;;;;12.80;8.53;;;5.10;99.90;;;;;;5060127;28;20242;-93
2022/01/15 07:21:03;;;;;;;14.17;8.87;;;5.10;99.90;;;;;;5059929;28;20208;-94
2022/01/15 07:23:34;;;;;;;13.27;9.03;;;5.20;99.90;;;;;;5062474;28;20650;-94
2022/01/15 07:26:08;;;;;;;24.33;11.87;;;5.20;99.90;;;;;;5061351;28;20203;-94
2022/01/15 07:28:39;;;;;;;32.20;12.43;;;5.20;99.90;;;;;;5063304;28;20188;-94
2022/01/15 07:31:10;;;;;;;20.77;12.00;;;5.20;99.90;;;;;;5063264;28;20208;-94
2022/01/15 07:33:42;;;;;;;25.73;10.73;;;5.20;99.90;;;;;;5073472;28;20272;-94
2022/01/15 07:36:15;;;;;;;37.23;10.33;;;5.20;99.90;;;;;;5077283;28;20192;-93
2022/01/15 07:38:46;;;;;;;38.43;10.53;;;5.10;99.90;;;;;;5076638;28;20212;-94
2022/01/15 07:41:19;;;;;;;12.63;7.60;;;5.10;99.90;;;;;;5066870;28;20207;-94
2022/01/15 07:43:50;;;;;;;14.00;7.87;;;5.10;99.90;;;;;;5062673;28;20204;-93
2022/01/15 07:46:22;;;;;;;11.70;8.03;;;5.00;99.90;;;;;;5060591;28;20208;-95
2022/01/15 07:48:54;;;;;;;13.40;8.33;;;5.00;99.90;;;;;;5060641;28;20639;-93
2022/01/15 07:51:25;;;;;;;11.87;8.67;;;5.00;99.90;;;;;;5061887;28;20728;-93
2022/01/15 07:53:56;;;;;;;12.77;8.67;;;4.90;99.90;;;;;;5059186;28;20204;-93
2022/01/15 07:56:30;;;;;;;12.97;8.90;;;5.00;99.90;;;;;;5061193;28;20184;-93
2022/01/15 07:59:01;;;;;;;11.97;8.97;;;5.00;99.90;;;;;;5057360;28;20311;-93
2022/01/15 08:01:32;;;;;;;12.60;9.03;;;5.00;99.90;;;;;;5057543;28;20539;-93
2022/01/15 08:04:05;;;;;;;11.13;8.97;;;5.00;99.90;;;;;;5059031;28;20204;-94
2022/01/15 08:06:39;;;;;;;12.80;8.37;;;5.10;99.90;;;;;;5055997;28;20291;-92
2022/01/15 08:09:10;;;;;;;9.57;8.13;;;5.10;99.90;;;;;;5059637;28;20204;-92
2022/01/15 08:11:43;;;;;;;12.40;8.30;;;5.00;99.90;;;;;;5057803;28;20208;-92
2022/01/15 08:14:14;;;;;;;12.03;8.87;;;5.00;99.90;;;;;;5058795;28;20204;-93
2022/01/15 08:16:46;;;;;;;10.77;7.80;;;5.10;99.90;;;;;;5056315;28;20204;-93
2022/01/15 08:19:17;;;;;;;11.10;8.63;;;5.10;99.90;;;;;;5239862;22;20203;-93
2022/01/15 08:21:48;;;;;;;10.50;7.70;;;5.00;99.90;;;;;;5056649;28;20296;-93
2022/01/15 08:24:19;;;;;;;7.90;6.70;;;5.10;99.90;;;;;;5055540;28;20235;-93
2022/01/15 08:26:52;;;;;;;8.83;6.57;;;5.10;99.90;;;;;;5055723;28;20240;-93
2022/01/15 08:29:22;;;;;;;11.33;8.57;;;5.10;99.90;;;;;;5056672;28;20204;-93
2022/01/15 08:31:53;;;;;;;10.77;8.43;;;5.10;99.90;;;;;;5056153;28;20208;-93
2022/01/15 08:34:25;;;;;;;9.67;7.80;;;5.00;99.90;;;;;;5054678;28;20227;-93
2022/01/15 08:36:56;;;;;;;9.83;7.93;;;5.00;99.90;;;;;;5055150;28;20211;-92
2022/01/15 08:39:27;;;;;;;9.77;7.80;;;5.10;99.90;;;;;;5055869;28;20238;-93
2022/01/15 08:42:00;;;;;;;10.23;7.80;;;5.00;99.90;;;;;;5055725;28;20246;-93
2022/01/15 08:44:31;;;;;;;8.77;7.13;;;5.10;99.90;;;;;;5062340;28;20232;-94
2022/01/15 08:47:04;;;;;;;7.73;6.80;;;5.10;99.90;;;;;;5066043;28;20582;-93
2022/01/15 08:49:36;;;;;;;9.90;6.73;;;5.10;99.90;;;;;;5061617;28;20244;-93
2022/01/15 08:52:08;;;;;;;7.30;6.50;;;5.10;99.90;;;;;;5067667;28;20219;-93
2022/01/15 08:54:40;;;;;;;6.60;5.90;;;5.10;99.90;;;;;;5065368;28;20215;-94
2022/01/15 08:57:14;;;;;;;6.87;6.17;;;5.10;99.90;;;;;;5069221;28;20212;-93
2022/01/15 08:59:46;;;;;;;5.80;5.20;;;5.10;99.90;;;;;;5059178;28;20254;-93
2022/01/15 09:02:17;;;;;;;6.50;5.67;;;5.20;99.90;;;;;;5055213;28;20205;-93
2022/01/15 09:04:48;;;;;;;6.33;5.73;;;5.10;99.90;;;;;;5055482;28;20689;-93
2022/01/15 09:07:20;;;;;;;8.17;6.20;;;5.10;99.90;;;;;;5055218;28;20307;-92
2022/01/15 09:09:51;;;;;;;6.90;6.00;;;5.20;99.90;;;;;;5054480;28;20204;-92
2022/01/15 09:12:24;;;;;;;9.37;6.30;;;5.20;99.90;;;;;;5055574;28;20203;-93
2022/01/15 09:14:58;;;;;;;6.27;5.63;;;5.20;99.90;;;;;;5055394;28;21027;-93
2022/01/15 09:17:30;;;;;;;6.40;5.80;;;5.30;99.90;;;;;;5054543;28;20211;-91
2022/01/15 09:20:01;;;;;;;7.13;5.77;;;5.30;99.90;;;;;;5055364;28;20290;-94
2022/01/15 09:22:32;;;;;;;6.00;5.40;;;5.30;99.90;;;;;;5054099;28;20243;-93
2022/01/15 09:25:03;;;;;;;5.87;5.27;;;5.40;99.90;;;;;;5055299;28;20281;-94
2022/01/15 09:30:23;;;;;;;6.23;5.50;;;5.50;99.90;;;;;;5056662;28;20228;-92
2022/01/15 09:32:58;;;;;;;7.60;5.53;;;5.50;99.90;;;;;;5062377;28;20200;-93
2022/01/15 09:35:34;;;;;;;6.70;5.70;;;5.50;99.90;;;;;;5074021;28;20263;-93
2022/01/15 09:38:08;;;;;;;5.50;4.97;;;5.50;99.90;;;;;;5065986;28;20684;-94
2022/01/15 09:40:41;;;;;;;7.37;6.20;;;5.50;99.90;;;;;;5060120;28;20284;-95
2022/01/15 09:43:15;;;;;;;6.53;5.33;;;5.50;99.90;;;;;;5063915;28;20205;-93
2022/01/15 09:45:47;;;;;;;5.77;5.17;;;5.40;99.90;;;;;;5067966;28;20207;-93
2022/01/15 09:48:19;;;;;;;5.50;4.90;;;5.50;99.90;;;;;;5078388;28;20188;-94
2022/01/15 09:50:50;;;;;;;5.77;5.27;;;5.50;99.90;;;;;;5078132;28;20196;-94
2022/01/15 09:53:22;;;;;;;6.20;5.00;;;5.50;99.90;;;;;;5069152;28;20211;-94
2022/01/15 09:55:54;;;;;;;5.53;4.70;;;5.50;99.90;;;;;;4714639;28;10000480;-93
2022/01/15 09:58:27;;;;;;;6.50;4.90;;;5.60;99.90;;;;;;5062761;28;20223;-94
2022/01/15 10:00:58;;;;;;;8.23;4.57;;;5.60;99.90;;;;;;5058216;28;20277;-93
2022/01/15 10:03:30;;;;;;;5.47;4.60;;;5.70;99.90;;;;;;5057962;28;20349;-94
2022/01/15 10:06:06;;;;;;;4.87;4.37;;;5.70;99.90;;;;;;5059409;28;20251;-94
2022/01/15 10:08:37;;;;;;;4.90;4.10;;;5.70;99.90;;;;;;5056765;28;20312;-93
2022/01/15 10:11:11;;;;;;;5.23;4.33;;;5.70;99.90;;;;;;5060160;28;20240;-93
2022/01/15 10:13:48;;;;;;;5.33;4.27;;;5.70;99.90;;;;;;5061088;28;20283;-93
2022/01/15 10:16:21;;;;;;;6.10;5.23;;;5.70;99.90;;;;;;5060319;28;20299;-94
2022/01/15 10:18:52;;;;;;;5.87;4.57;;;5.70;99.90;;;;;;5058252;28;20222;-93
2022/01/15 10:21:25;;;;;;;5.47;4.70;;;5.70;99.90;;;;;;5057808;28;20257;-93
2022/01/15 10:23:57;;;;;;;6.27;5.37;;;5.60;99.90;;;;;;5060792;28;20235;-93
2022/01/15 10:26:31;;;;;;;8.13;5.97;;;5.60;99.90;;;;;;5057308;28;20254;-93
2022/01/15 10:29:08;;;;;;;6.70;6.00;;;5.60;99.90;;;;;;5058235;28;20226;-93
2022/01/15 10:31:43;;;;;;;6.67;5.83;;;5.60;99.90;;;;;;5058202;28;20233;-93
2022/01/15 10:34:27;;;;;;;9.63;6.57;;;5.50;99.90;;;;;;5057638;28;20288;-93
2022/01/15 10:37:08;;;;;;;9.93;6.33;;;5.60;99.90;;;;;;5057348;28;20207;-93
2022/01/15 10:39:40;;;;;;;8.33;6.03;;;5.60;99.90;;;;;;5057463;28;20243;-93
2022/01/15 10:42:22;;;;;;;7.63;5.80;;;5.60;99.90;;;;;;5056885;28;20258;-94
2022/01/15 10:44:56;;;;;;;8.97;6.53;;;5.60;99.90;;;;;;5057206;28;20210;-92
2022/01/15 10:47:28;;;;;;;9.30;5.77;;;5.50;99.90;;;;;;5056887;28;20307;-92
2022/01/15 10:50:03;;;;;;;6.63;5.60;;;5.60;99.90;;;;;;5057853;28;20235;-92
2022/01/15 10:52:34;;;;;;;8.00;6.27;;;5.60;99.90;;;;;;5057772;28;20242;-93
2022/01/15 10:55:10;;;;;;;8.30;6.00;;;5.60;99.90;;;;;;5057290;28;20258;-93
2022/01/15 10:57:43;;;;;;;7.43;6.23;;;5.60;99.90;;;;;;5056521;28;20231;-92
2022/01/15 11:00:21;;;;;;;6.40;5.80;;;5.70;99.90;;;;;;5056516;28;20210;-92
2022/01/15 11:02:53;;;;;;;8.13;5.90;;;5.60;99.90;;;;;;5057181;28;20235;-93
2022/01/15 11:05:32;;;;;;;8.87;6.47;;;5.60;99.90;;;;;;5074517;22;20250;-91
2022/01/15 11:08:13;;;;;;;9.70;6.30;;;5.70;99.90;;;;;;5056438;28;20263;-93
2022/01/15 11:10:53;;;;;;;9.40;6.10;;;5.70;99.90;;;;;;5057048;28;20200;-93
2022/01/15 11:13:27;;;;;;;8.77;6.30;;;5.70;99.90;;;;;;5057293;28;20215;-92
2022/01/15 11:16:02;;;;;;;8.13;6.07;;;5.70;99.90;;;;;;5056611;28;20266;-93
2022/01/15 11:18:34;;;;;;;7.33;5.73;;;5.70;99.90;;;;;;5056595;28;20703;-92
2022/01/15 11:21:08;;;;;;;7.83;6.27;;;5.80;99.90;;;;;;5057425;28;20319;-92
2022/01/15 11:23:41;;;;;;;7.80;5.70;;;5.80;99.90;;;;;;5080133;22;20645;-93
2022/01/15 11:26:15;;;;;;;6.40;5.70;;;5.80;99.90;;;;;;5038826;28;20630;-92
2022/01/15 11:28:46;;;;;;;6.93;5.47;;;5.80;99.90;;;;;;5043822;28;20235;-93
2022/01/15 11:31:25;;;;;;;7.13;5.33;;;5.80;99.90;;;;;;5040371;28;20306;-94
2022/01/15 11:33:59;;;;;;;8.23;5.03;;;5.80;99.90;;;;;;5037952;28;20212;-93
2022/01/15 11:36:33;;;;;;;7.67;5.57;;;5.90;99.90;;;;;;5040750;28;20219;-90
2022/01/15 11:39:06;;;;;;;6.03;5.37;;;5.90;99.90;;;;;;5044581;28;20211;-91
2022/01/15 11:41:44;;;;;;;6.53;4.77;;;5.90;99.90;;;;;;5042658;28;20247;-90
2022/01/15 11:44:19;;;;;;;5.30;4.80;;;5.90;99.90;;;;;;5038162;28;20227;-94
2022/01/15 11:46:54;;;;;;;5.87;5.13;;;5.90;99.90;;;;;;5036343;28;20215;-94
2022/01/15 11:49:44;;;;;;;6.30;4.97;;;5.90;99.90;;;;;;5039435;28;20235;-94
2022/01/15 11:52:45;;;;;;;6.80;5.10;;;5.90;99.90;;;;;;5036927;28;20213;-94
2022/01/15 11:55:22;;;;;;;5.30;4.70;;;5.80;99.90;;;;;;5036913;28;20272;-93
2022/01/15 11:57:55;;;;;;;5.53;4.67;;;5.80;99.90;;;;;;5039258;28;20236;-93
2022/01/15 12:00:28;;;;;;;4.90;4.33;;;5.80;99.90;;;;;;5042997;28;20224;-92
2022/01/15 12:03:04;;;;;;;5.13;4.63;;;5.80;99.90;;;;;;5056421;28;20212;-94
2022/01/15 12:05:40;;;;;;;4.40;3.73;;;5.80;99.90;;;;;;5055853;28;20224;-92
2022/01/15 12:08:32;;;;;;;4.47;3.67;;;5.70;99.90;;;;;;5054346;28;20239;-94
2022/01/15 12:11:08;;;;;;;3.67;3.37;;;5.70;99.90;;;;;;5054572;28;20184;-90
2022/01/15 12:13:48;;;;;;;4.73;3.67;;;5.70;99.90;;;;;;5053197;28;20200;-94
2022/01/15 12:16:28;;;;;;;3.70;3.07;;;5.60;99.90;;;;;;5040524;28;20216;-93
2022/01/15 12:19:02;;;;;;;3.47;3.03;;;5.60;99.90;;;;;;5036653;28;20268;-94
2022/01/15 12:21:48;;;;;;;4.03;3.23;;;5.70;99.90;;;;;;5036711;28;20292;-93
2022/01/15 12:24:44;;;;;;;3.40;3.10;;;5.70;99.90;;;;;;5035780;28;20667;-93
2022/01/15 12:27:16;;;;;;;3.73;3.40;;;5.60;99.90;;;;;;5036429;28;20209;-94
2022/01/15 12:29:47;;;;;;;3.50;2.60;;;5.60;99.90;;;;;;5036040;28;20209;-91
2022/01/15 12:32:32;;;;;;;3.53;2.70;;;5.70;99.90;;;;;;5016619;28;20236;-93
2022/01/15 12:35:10;;;;;;;2.83;2.50;;;5.70;99.90;;;;;;5016313;28;20237;-94
2022/01/15 12:37:53;;;;;;;6.13;2.90;;;5.60;99.90;;;;;;5015808;28;20269;-94
2022/01/15 12:40:31;;;;;;;2.93;2.40;;;5.60;99.90;;;;;;5015959;28;20248;-93
2022/01/15 12:43:04;;;;;;;2.77;2.50;;;5.70;99.90;;;;;;5017298;28;20228;-93
2022/01/15 12:45:36;;;;;;;5.33;3.50;;;5.70;99.90;;;;;;5023813;28;20233;-93
2022/01/15 12:48:09;;;;;;;3.63;3.20;;;5.60;99.90;;;;;;5035193;28;20300;-93
2022/01/15 12:50:51;;;;;;;4.50;3.70;;;5.60;99.90;;;;;;5038532;28;20220;-93
2022/01/15 12:53:25;;;;;;;4.40;3.70;;;5.60;99.90;;;;;;5036277;28;20204;-92
2022/01/15 12:55:57;;;;;;;4.73;3.53;;;5.60;99.90;;;;;;5035940;28;20251;-93
2022/01/15 12:58:30;;;;;;;4.77;4.30;;;5.70;99.90;;;;;;5039093;28;20239;-93
2022/01/15 13:01:03;;;;;;;4.73;4.07;;;5.70;99.90;;;;;;5034992;28;20548;-95
2022/01/15 13:03:39;;;;;;;5.93;4.63;;;5.70;99.90;;;;;;5038024;28;20243;-94
2022/01/15 13:06:11;;;;;;;5.60;4.43;;;5.60;99.90;;;;;;5038775;28;20239;-94
2022/01/15 13:08:44;;;;;;;5.83;4.30;;;5.60;99.90;;;;;;5038190;28;20205;-93
2022/01/15 13:11:23;;;;;;;4.80;4.10;;;5.60;99.90;;;;;;5038924;28;20678;-94
2022/01/15 13:13:56;;;;;;;7.03;4.77;;;5.60;99.90;;;;;;5038841;28;20201;-93
2022/01/15 13:16:30;;;;;;;7.13;4.87;;;5.70;99.90;;;;;;5036756;28;20255;-94
2022/01/15 13:19:04;;;;;;;6.23;5.30;;;5.60;99.90;;;;;;5039332;28;20242;-93
2022/01/15 13:21:40;;;;;;;6.13;4.97;;;5.70;99.90;;;;;;5043536;28;20608;-94
2022/01/15 13:24:12;;;;;;;6.50;4.93;;;5.70;99.90;;;;;;5039452;28;20243;-93
2022/01/15 13:26:46;;;;;;;4.73;4.20;;;5.70;99.90;;;;;;5038300;28;20213;-94
2022/01/15 13:29:19;;;;;;;6.53;4.57;;;5.70;99.90;;;;;;5047431;28;20292;-94
2022/01/15 13:31:52;;;;;;;5.20;4.60;;;5.70;99.90;;;;;;5059097;28;20270;-94
2022/01/15 13:34:29;;;;;;;6.67;4.90;;;5.80;99.90;;;;;;5059104;28;20266;-93
2022/01/15 13:37:11;;;;;;;8.33;5.10;;;5.70;99.90;;;;;;5058899;28;20287;-94
2022/01/15 13:39:43;;;;;;;8.53;6.13;;;5.80;99.90;;;;;;5041896;28;20213;-95
2022/01/15 13:42:20;;;;;;;8.63;6.13;;;5.80;99.90;;;;;;5041689;28;20289;-92
2022/01/15 13:44:50;;;;;;;9.87;6.53;;;5.70;99.90;;;;;;5050321;28;20239;-92